Meteorología y climatología de Navarra
Datos de la estación - Meteo Navarra

Estación de Bardenas (El Yugo) GN

Altitud 486 m.


Datos desde el 10/10/2019 hasta el 11/10/2019 en horario solar
Los datos son PROVISIONALES

Anterior Página 1 de 1 Siguiente Descargar: Formato para Excel 2000 o superior   Formato csv   Formato para OpenOffice Calc
Fecha Temperatura Humedad relativa Radiación global Insolación Precipitación Vel. viento 10 m Vel. viento 10 m Dir. viento 10 m
ºC % W/m² s l/m² m/s km/h º
10/10/2019 0:00 10.3 78 0.0 0 0.0 3.1 11.1 286
10/10/2019 0:10 10.1 78 0.0 0 0.0 3.0 10.9 286
10/10/2019 0:20 10.0 79 0.0 0 0.0 3.5 12.5 292
10/10/2019 0:30 10.0 78 0.0 0 0.0 3.8 13.5 298
10/10/2019 0:40 10.2 78 0.0 0 0.0 3.9 13.9 299
10/10/2019 0:50 10.4 77 0.0 0 0.0 4.3 15.3 304
10/10/2019 1:00 10.4 77 0.0 0 0.0 4.2 15.3 306
10/10/2019 1:10 10.7 77 0.0 0 0.0 4.5 16.1 310
10/10/2019 1:20 10.7 76 0.0 0 0.0 4.2 15.0 310
10/10/2019 1:30 10.6 76 0.0 0 0.0 4.2 15.2 319
10/10/2019 1:40 10.7 75 0.0 0 0.0 4.1 14.7 307
10/10/2019 1:50 10.6 76 0.0 0 0.0 3.9 14.2 305
10/10/2019 2:00 10.3 77 0.0 0 0.0 3.8 13.8 302
10/10/2019 2:10 10.2 77 0.0 0 0.0 4.0 14.3 303
10/10/2019 2:20 10.1 77 0.0 0 0.0 4.1 14.6 304
10/10/2019 2:30 10.3 76 0.0 0 0.0 4.2 15.2 306
10/10/2019 2:40 10.2 76 0.0 0 0.0 4.6 16.4 303
10/10/2019 2:50 10.2 76 0.0 0 0.0 4.4 15.8 306
10/10/2019 3:00 10.2 76 0.0 0 0.0 4.6 16.6 309
10/10/2019 3:10 10.2 76 0.0 0 0.0 4.8 17.2 314
10/10/2019 3:20 10.1 76 0.0 0 0.0 4.8 17.4 314
10/10/2019 3:30 10.0 76 0.0 0 0.0 4.8 17.4 309
10/10/2019 3:40 10.0 76 0.0 0 0.0 4.8 17.4 307
10/10/2019 3:50 10.1 75 0.0 0 0.0 5.0 18.0 304
10/10/2019 4:00 9.7 77 0.0 0 0.0 4.8 17.4 301
10/10/2019 4:10 9.6 77 0.0 0 0.0 4.9 17.5 298
10/10/2019 4:20 9.6 77 0.0 0 0.0 5.4 19.5 300
10/10/2019 4:30 9.8 76 0.0 0 0.0 5.2 18.5 303
10/10/2019 4:40 9.8 77 0.0 0 0.0 5.8 20.8 310
10/10/2019 4:50 10.1 76 0.0 0 0.0 5.8 20.8 308
10/10/2019 5:00 10.3 76 0.0 0 0.0 6.0 21.7 310
10/10/2019 5:10 10.2 77 0.0 0 0.0 5.9 21.3 310
10/10/2019 5:20 10.2 77 0.0 0 0.0 6.1 21.9 311
10/10/2019 5:30 10.1 77 0.0 0 0.0 6.5 23.4 311
10/10/2019 5:40 10.0 78 0.0 0 0.0 6.6 23.8 311
10/10/2019 5:50 10.0 78 0.0 0 0.0 6.2 22.4 308
10/10/2019 6:00 9.8 78 0.0 0 0.0 5.9 21.4 307
10/10/2019 6:10 9.6 79 0.0 0 0.0 5.4 19.4 304
10/10/2019 6:20 9.4 80 0.0 0 0.0 5.3 19.2 300
10/10/2019 6:30 9.4 80 12.5 0 0.0 4.9 17.7 304
10/10/2019 6:40 9.5 80 35.6 462 0.0 4.7 16.8 303
10/10/2019 6:50 9.4 80 58.3 600 0.0 4.5 16.1 303
10/10/2019 7:00 9.6 79 83.9 600 0.0 4.6 16.7 306
10/10/2019 7:10 9.9 78 112.1 600 0.0 4.8 17.4 311
10/10/2019 7:20 10.5 75 142.5 600 0.0 5.0 18.1 309
10/10/2019 7:30 10.7 74 172.9 600 0.0 4.5 16.1 306
10/10/2019 7:40 11.0 73 203.3 600 0.0 4.4 15.7 307
10/10/2019 7:50 11.6 71 232.9 600 0.0 4.4 15.8 312
10/10/2019 8:00 11.9 70 263.4 600 0.0 4.3 15.5 310
10/10/2019 8:10 12.1 69 294.2 600 0.0 4.0 14.5 313
10/10/2019 8:20 12.5 68 324.3 600 0.0 4.2 15.2 306
10/10/2019 8:30 12.9 66 353.8 600 0.0 4.1 14.6 307
10/10/2019 8:40 13.6 63 382.7 600 0.0 4.3 15.3 315
10/10/2019 8:50 14.3 61 410.6 600 0.0 4.2 14.9 317
10/10/2019 9:00 14.7 60 437.4 600 0.0 3.6 13.1 318
10/10/2019 9:10 15.7 57 462.8 600 0.0 3.1 11.3 327
10/10/2019 9:20 15.7 56 489.4 600 0.0 4.1 14.8 327
10/10/2019 9:30 15.9 55 513.7 600 0.0 4.3 15.4 334
10/10/2019 9:40 16.1 54 535.4 600 0.0 4.1 14.7 327
10/10/2019 9:50 16.9 52 556.6 600 0.0 2.9 10.5 330
10/10/2019 10:00 17.3 50 576.1 600 0.0 3.2 11.5 313
10/10/2019 10:10 17.1 51 595.1 600 0.0 2.7 9.8 296
10/10/2019 10:20 17.4 50 611.8 600 0.0 2.8 10.0 297
10/10/2019 10:30 17.7 49 626.7 600 0.0 1.9 6.9 315
10/10/2019 10:40 18.0 48 642.2 600 0.0 2.4 8.6 318
10/10/2019 10:50 18.7 46 654.6 600 0.0 2.4 8.8 3
10/10/2019 11:00 18.8 46 665.4 600 0.0 3.0 10.6 343
10/10/2019 11:10 19.0 45 674.7 600 0.0 2.5 8.9 337
10/10/2019 11:20 19.2 44 681.7 600 0.0 2.5 9.0 350
10/10/2019 11:30 19.1 44 688.4 600 0.0 2.2 8.0 336
10/10/2019 11:40 19.1 44 693.6 600 0.0 2.6 9.4 337
10/10/2019 11:50 19.8 41 694.4 600 0.0 1.8 6.4 344
10/10/2019 12:00 20.0 40 691.7 600 0.0 2.5 9.0 345
10/10/2019 12:10 20.5 38 689.6 600 0.0 1.7 6.2 339
10/10/2019 12:20 20.2 39 685.2 600 0.0 3.0 10.7 334
10/10/2019 12:30 20.4 39 681.9 600 0.0 1.5 5.2 3
10/10/2019 12:40 20.2 39 673.1 600 0.0 1.9 6.7 342
10/10/2019 12:50 20.6 37 663.7 600 0.0 2.2 8.1 351
10/10/2019 13:00 21.1 36 654.5 600 0.0 2.4 8.7 327
10/10/2019 13:10 21.2 35 641.3 600 0.0 1.6 5.9 356
10/10/2019 13:20 21.4 34 629.3 600 0.0 2.3 8.1 338
10/10/2019 13:30 21.5 33 616.3 600 0.0 1.9 6.9 344
10/10/2019 13:40 21.6 33 603.0 600 0.0 1.5 5.4 354
10/10/2019 13:50 21.8 33 586.4 600 0.0 1.5 5.3 352
10/10/2019 14:00 21.8 33 567.8 600 0.0 0.9 3.2 347
10/10/2019 14:10 22.0 32 549.2 600 0.0 1.5 5.3 345
10/10/2019 14:20 22.4 32 529.2 600 0.0 2.4 8.7 22
10/10/2019 14:30 22.4 32 505.0 600 0.0 2.2 8.1 42
10/10/2019 14:40 22.4 32 481.5 600 0.0 2.0 7.2 9
10/10/2019 14:50 22.4 31 456.0 600 0.0 1.8 6.6 358
10/10/2019 15:00 22.3 32 428.6 600 0.0 2.0 7.3 359
10/10/2019 15:10 22.5 31 400.5 600 0.0 1.3 4.7 8
10/10/2019 15:20 22.5 31 371.3 600 0.0 0.9 3.1 28
10/10/2019 15:30 22.7 30 342.1 600 0.0 0.9 3.2 67
10/10/2019 15:40 22.5 31 313.0 600 0.0 1.3 4.6 40
10/10/2019 15:50 22.6 30 282.1 600 0.0 1.3 4.7 6
10/10/2019 16:00 22.8 30 250.0 600 0.0 0.3 1.1 34
10/10/2019 16:10 22.8 31 217.7 600 0.0 1.0 3.7 98
10/10/2019 16:20 22.7 31 186.7 600 0.0 0.6 2.1 92
10/10/2019 16:30 22.5 32 156.9 600 0.0 0.5 1.8 105
10/10/2019 16:40 22.2 32 124.3 600 0.0 0.6 2.1 182
10/10/2019 16:50 22.0 34 94.5 600 0.0 1.2 4.4 178
10/10/2019 17:00 21.5 35 68.4 600 0.0 1.8 6.5 201
10/10/2019 17:10 21.1 36 42.9 600 0.0 1.6 5.8 199
10/10/2019 17:20 20.5 37 20.8 36 0.0 1.5 5.3 204
10/10/2019 17:30 19.9 39 0.0 0 0.0 1.1 4.1 230
10/10/2019 17:40 19.1 41 0.0 0 0.0 1.3 4.8 204
10/10/2019 17:50 18.4 43 0.0 0 0.0 1.9 6.7 213
10/10/2019 18:00 18.0 44 0.0 0 0.0 1.4 5.0 215
10/10/2019 18:10 17.8 45 0.0 0 0.0 2.0 7.0 208
10/10/2019 18:20 17.5 46 0.0 0 0.0 3.1 11.2 195
10/10/2019 18:30 17.6 46 0.0 0 0.0 3.1 11.2 191
10/10/2019 18:40 17.4 47 0.0 0 0.0 3.0 10.8 183
10/10/2019 18:50 17.1 49 0.0 0 0.0 3.1 11.1 180
10/10/2019 19:00 17.1 49 0.0 0 0.0 3.4 12.1 191
10/10/2019 19:10 17.2 48 0.0 0 0.0 3.5 12.4 188
10/10/2019 19:20 17.1 48 0.0 0 0.0 3.3 11.9 188
10/10/2019 19:30 17.0 49 0.0 0 0.0 3.3 11.7 184
10/10/2019 19:40 17.0 49 0.0 0 0.0 3.2 11.6 182
10/10/2019 19:50 16.8 49 0.0 0 0.0 3.4 12.2 174
10/10/2019 20:00 16.9 49 0.0 0 0.0 3.5 12.6 170
10/10/2019 20:10 17.0 49 0.0 0 0.0 3.6 12.8 164
10/10/2019 20:20 17.0 49 0.0 0 0.0 3.5 12.6 159
10/10/2019 20:30 17.0 49 0.0 0 0.0 3.4 12.1 150
10/10/2019 20:40 17.1 49 0.0 0 0.0 3.4 12.2 146
10/10/2019 20:50 17.2 49 0.0 0 0.0 3.7 13.4 149
10/10/2019 21:00 17.2 49 0.0 0 0.0 3.7 13.4 153
10/10/2019 21:10 17.0 50 0.0 0 0.0 3.0 10.7 135
10/10/2019 21:20 16.2 51 0.0 0 0.0 3.2 11.6 117
10/10/2019 21:30 15.2 53 0.0 0 0.0 3.6 13.1 112
10/10/2019 21:40 14.5 55 0.0 0 0.0 3.6 13.1 110
10/10/2019 21:50 14.0 57 0.0 0 0.0 3.6 12.9 107
10/10/2019 22:00 13.8 57 0.0 0 0.0 4.2 15.2 111
10/10/2019 22:10 13.8 57 0.0 0 0.0 4.4 15.8 108
10/10/2019 22:20 13.8 57 0.0 0 0.0 4.3 15.4 108
10/10/2019 22:30 14.1 56 0.0 0 0.0 5.0 17.9 110
10/10/2019 22:40 14.2 54 0.0 0 0.0 5.2 18.5 110
10/10/2019 22:50 14.1 54 0.0 0 0.0 5.3 19.0 110
10/10/2019 23:00 13.8 56 0.0 0 0.0 5.4 19.4 112
10/10/2019 23:10 13.5 56 0.0 0 0.0 4.9 17.5 103
10/10/2019 23:20 13.3 57 0.0 0 0.0 4.3 15.6 101
10/10/2019 23:30 13.3 58 0.0 0 0.0 4.4 15.7 102
10/10/2019 23:40 13.5 59 0.0 0 0.0 5.2 18.8 109
10/10/2019 23:50 13.8 60 0.0 0 0.0 5.8 20.7 113
Anterior Página 1 de 1 Siguiente

NOTA: Tipo de datos según el color:
   - Valores diarios o 10 minutos correctos
   - Valores diarios calculados a partir de un número de datos 10 minutos menor que 144 y mayor que 120, o de un número de datos semihorarios menor que 48 y mayor que 40 (caso de las estaciones de Riegos de Navarra y del MARM)
   - Valores diez minutos estimados


Contacto        Enlaces        Aviso legal